Time;durP1;ratioP1;P1;durP2;ratioP2;P2;SDS_P1;SDS_P2;PMS_P1;PMS_P2;Temp;Humidity;BMP_temperature;BMP_pressure;BME280_temperature;BME280_humidity;BME280_pressure;Samples;Min_cycle;Max_cycle;Signal;HPM_P1;HPM_P2
2024/04/11 00:00:13;;;;;;;11.60;4.80;;;;;;;7.35;75.96;94030.19;2024966;70;20205;-73
2024/04/11 00:02:39;;;;;;;8.27;4.47;;;;;;;7.42;75.27;94032.25;2028587;70;20153;-72
2024/04/11 00:05:06;;;;;;;8.63;4.78;;;;;;;7.60;74.46;94042.34;2028647;70;20286;-72
2024/04/11 00:07:32;;;;;;;6.35;4.20;;;;;;;7.77;73.71;94036.22;2028424;70;20237;-74
2024/04/11 00:09:58;;;;;;;7.57;4.38;;;;;;;7.68;73.91;94041.63;2028528;70;20153;-72
2024/04/11 00:12:23;;;;;;;7.60;4.60;;;;;;;7.56;74.65;94036.41;2028125;70;20153;-71
2024/04/11 00:14:49;;;;;;;7.88;3.90;;;;;;;7.69;73.58;94023.50;2028014;70;20160;-70
2024/04/11 00:17:16;;;;;;;7.50;3.92;;;;;;;7.58;73.49;94030.22;2028168;70;20159;-70
2024/04/11 00:19:42;;;;;;;6.68;3.97;;;;;;;7.66;73.63;94033.78;2028654;70;20275;-72
2024/04/11 00:22:11;;;;;;;7.07;3.70;;;;;;;7.58;73.84;94039.38;2028667;70;20164;-74
2024/04/11 00:24:37;;;;;;;8.45;4.28;;;;;;;7.71;73.75;94034.91;2028508;70;20117;-71
2024/04/11 00:27:03;;;;;;;7.85;4.35;;;;;;;7.81;73.93;94039.38;2028498;70;20482;-71
2024/04/11 00:29:29;;;;;;;6.15;3.83;;;;;;;7.93;72.67;94030.63;2028160;70;20158;-72
2024/04/11 00:31:55;;;;;;;6.32;3.80;;;;;;;7.67;73.01;94038.09;2028566;70;20196;-72
2024/04/11 00:34:24;;;;;;;6.72;3.88;;;;;;;7.74;72.44;94044.97;2028357;70;20273;-72
2024/04/11 00:36:50;;;;;;;7.43;3.22;;;;;;;7.59;72.65;94034.53;2028288;70;20257;-72
2024/04/11 00:39:24;;;;;;;6.43;3.33;;;;;;;6.99;74.87;94035.91;2028569;70;20161;-71
2024/04/11 00:41:50;;;;;;;6.95;3.40;;;;;;;7.51;73.04;94036.56;2028517;70;20647;-71
2024/04/11 00:44:20;;;;;;;6.63;3.35;;;;;;;7.56;72.92;94039.19;2027745;70;20225;-70
2024/04/11 00:46:51;;;;;;;5.28;3.47;;;;;;;7.40;72.65;94032.06;2028539;70;20221;-71
2024/04/11 00:49:19;;;;;;;5.90;3.30;;;;;;;7.36;73.72;94048.50;2028358;70;20674;-71
2024/04/11 00:51:45;;;;;;;7.43;3.20;;;;;;;7.60;71.41;94045.16;2028329;70;20159;-70
2024/04/11 00:54:12;;;;;;;6.43;3.20;;;;;;;7.60;72.13;94042.34;2027821;70;20181;-68
2024/04/11 00:56:42;;;;;;;6.43;3.30;;;;;;;7.71;70.91;94035.66;2028362;70;20136;-70
2024/04/11 00:59:14;;;;;;;5.70;3.47;;;;;;;7.57;72.28;94039.94;2027578;70;20140;-70
2024/04/11 01:01:40;;;;;;;5.55;3.33;;;;;;;7.38;72.43;94032.66;2028081;70;20192;-71
2024/04/11 01:04:06;;;;;;;6.60;3.25;;;;;;;7.45;73.05;94031.16;2028396;70;20156;-70
2024/04/11 01:09:36;;;;;;;4.22;3.22;;;;;;;7.68;71.87;94017.16;2028226;70;20187;-71
2024/04/11 01:12:05;;;;;;;4.50;3.00;;;;;;;7.52;72.22;94012.84;2028344;70;20140;-71
2024/04/11 01:14:33;;;;;;;6.05;3.60;;;;;;;7.24;73.39;94020.13;2028095;70;20164;-70
2024/04/11 01:17:00;;;;;;;4.60;3.20;;;;;;;7.43;71.96;94021.81;2027862;70;20231;-70
2024/04/11 01:19:26;;;;;;;7.00;3.33;;;;;;;7.62;72.07;94022.94;2027830;70;20225;-70
2024/04/11 01:21:53;;;;;;;7.00;3.42;;;;;;;7.72;70.53;94022.38;2028331;70;20156;-70
2024/04/11 01:24:19;;;;;;;5.95;3.33;;;;;;;7.44;71.62;93984.81;2028353;70;20165;-70
2024/04/11 01:26:47;;;;;;;6.07;3.33;;;;;;;7.71;71.75;94015.28;2028371;70;20617;-71
2024/04/11 01:29:13;;;;;;;5.00;3.35;;;;;;;7.66;72.69;94011.38;2028168;70;20133;-72
2024/04/11 01:31:39;;;;;;;5.85;3.53;;;;;;;7.76;72.74;94020.69;2028160;70;20140;-71
2024/04/11 01:34:06;;;;;;;8.45;3.50;;;;;;;7.70;73.05;94019.38;2027816;70;20175;-70
2024/04/11 01:36:32;;;;;;;6.20;3.30;;;;;;;7.72;72.62;94014.72;2028320;70;20534;-70
2024/04/11 01:38:57;;;;;;;5.47;3.40;;;;;;;7.73;72.38;94009.84;2027961;70;20236;-70
2024/04/11 01:41:26;;;;;;;7.22;3.70;;;;;;;7.74;73.25;94011.34;2028336;70;20653;-71
2024/04/11 01:43:52;;;;;;;6.05;3.33;;;;;;;7.82;71.58;94010.03;2028253;70;20157;-71
2024/04/11 01:46:18;;;;;;;7.57;3.50;;;;;;;7.79;71.90;94013.97;2028407;70;20198;-71
2024/04/11 01:48:47;;;;;;;5.40;3.20;;;;;;;7.75;71.64;94007.25;2027766;70;20530;-71
2024/04/11 01:51:13;;;;;;;6.28;3.53;;;;;;;7.95;71.50;94019.56;2028074;70;20136;-72
2024/04/11 01:53:40;;;;;;;5.47;3.17;;;;;;;7.94;71.88;94018.81;2028493;70;20160;-71
2024/04/11 01:56:06;;;;;;;5.38;3.30;;;;;;;7.86;72.51;94016.00;2028375;70;20236;-70
2024/04/11 01:58:31;;;;;;;6.40;3.25;;;;;;;7.90;72.61;94021.25;2028155;70;20324;-72
2024/04/11 02:01:13;;;;;;;5.15;3.58;;;;;;;7.87;73.07;94019.56;2028282;70;20141;-73
2024/04/11 02:03:39;;;;;;;9.23;3.78;;;;;;;7.87;73.02;94020.31;2028403;70;20191;-72
2024/04/11 02:06:07;;;;;;;4.78;3.20;;;;;;;7.92;73.08;94015.81;2028491;70;20168;-71
2024/04/11 02:08:35;;;;;;;5.45;3.50;;;;;;;7.87;72.77;93997.13;2028205;70;20232;-72
2024/04/11 02:11:02;;;;;;;7.20;3.40;;;;;;;7.90;72.91;94015.66;2028205;70;20229;-72
2024/04/11 02:13:27;;;;;;;4.55;3.28;;;;;;;7.90;72.74;94010.78;2028267;70;20517;-70
2024/04/11 02:15:56;;;;;;;7.57;3.35;;;;;;;7.88;73.21;94015.47;2028345;70;20187;-71
2024/04/11 02:18:22;;;;;;;5.90;3.47;;;;;;;7.91;73.66;94014.34;2028250;70;20152;-72
2024/04/11 02:20:48;;;;;;;5.07;3.00;;;;;;;7.84;73.21;94004.63;2028187;70;20153;-71
2024/04/11 02:23:14;;;;;;;6.82;3.60;;;;;;;7.90;73.15;94012.84;2028394;70;20276;-71
2024/04/11 02:25:40;;;;;;;6.40;3.47;;;;;;;8.03;71.19;94006.28;2028248;70;20204;-71
2024/04/11 02:28:06;;;;;;;7.13;3.42;;;;;;;7.76;72.08;93997.53;2027354;70;20145;-72
2024/04/11 02:30:32;;;;;;;5.30;3.60;;;;;;;7.89;72.78;94016.97;2028282;70;20149;-73
2024/04/11 02:32:58;;;;;;;7.20;3.72;;;;;;;7.53;74.02;94017.91;2028696;70;20149;-73
2024/04/11 02:35:24;;;;;;;7.35;3.72;;;;;;;7.26;74.76;94023.09;2028667;70;20587;-72
2024/04/11 02:37:54;;;;;;;7.82;3.40;;;;;;;7.66;73.69;94019.03;2028817;70;20179;-71
2024/04/11 02:40:20;;;;;;;4.78;3.35;;;;;;;7.73;73.11;94019.00;2028677;70;20173;-71
2024/04/11 02:42:47;;;;;;;6.95;3.70;;;;;;;7.86;72.47;94027.22;2028255;70;20232;-71
2024/04/11 02:45:14;;;;;;;7.47;3.60;;;;;;;7.68;72.73;94005.19;2027843;70;20148;-70
2024/04/11 02:47:41;;;;;;;6.50;3.45;;;;;;;7.78;72.99;94018.06;2028057;70;20147;-71
2024/04/11 02:50:09;;;;;;;5.72;3.38;;;;;;;7.83;73.22;94019.19;2028758;70;20624;-70
2024/04/11 02:52:36;;;;;;;9.68;3.90;;;;;;;7.85;73.39;94025.75;2028053;70;20606;-72
2024/04/11 02:55:04;;;;;;;8.57;3.83;;;;;;;7.86;73.67;94032.09;2028100;70;20153;-72
2024/04/11 02:57:31;;;;;;;5.28;3.53;;;;;;;7.93;72.41;94027.81;2028639;70;20224;-71
2024/04/11 02:59:57;;;;;;;5.65;3.80;;;;;;;7.94;73.10;94037.72;2028582;70;20231;-71
2024/04/11 03:02:28;;;;;;;6.40;3.45;;;;;;;7.89;72.61;94030.97;2028422;70;20148;-72
2024/04/11 03:04:57;;;;;;;5.72;3.70;;;;;;;7.95;73.22;94033.59;2027904;70;20192;-71
2024/04/11 03:07:23;;;;;;;8.88;3.60;;;;;;;7.94;72.36;94046.13;2028448;70;20155;-70
2024/04/11 03:09:51;;;;;;;5.55;3.05;;;;;;;7.96;73.22;94043.50;2028645;70;20141;-70
2024/04/11 03:12:16;;;;;;;6.65;3.47;;;;;;;7.84;73.24;94040.34;2028039;70;20514;-70
2024/04/11 03:14:46;;;;;;;6.57;4.07;;;;;;;7.50;74.61;94038.63;2028488;70;20590;-70
2024/04/11 03:17:12;;;;;;;5.18;3.63;;;;;;;7.81;72.77;94039.38;2028700;70;20188;-71
2024/04/11 03:19:39;;;;;;;5.57;3.67;;;;;;;7.86;72.56;94040.50;2028089;70;20240;-70
2024/04/11 03:22:05;;;;;;;7.55;4.07;;;;;;;7.87;73.57;94034.31;2028522;70;20244;-70
2024/04/11 03:24:32;;;;;;;6.25;4.13;;;;;;;7.88;74.39;94041.47;2028616;70;20147;-71
2024/04/11 03:26:58;;;;;;;4.93;3.70;;;;;;;7.92;73.93;94043.13;2028840;70;20176;-71
2024/04/11 03:29:24;;;;;;;6.78;3.58;;;;;;;7.95;72.92;94050.41;2028809;70;20276;-71
2024/04/11 03:31:50;;;;;;;7.50;3.88;;;;;;;7.99;72.57;94051.53;2028461;70;20231;-71
2024/04/11 03:34:17;;;;;;;7.00;4.03;;;;;;;7.84;73.77;94026.31;2028640;70;20164;-70
2024/04/11 03:36:44;;;;;;;6.13;3.60;;;;;;;7.92;73.86;94045.91;2028370;70;20655;-71
2024/04/11 03:39:12;;;;;;;7.82;3.80;;;;;;;7.96;73.64;94049.09;2028571;70;20237;-70
2024/04/11 03:41:52;;;;;;;6.43;3.80;;;;;;;7.86;73.82;94046.84;2028590;70;20259;-72
2024/04/11 03:44:18;;;;;;;6.60;3.67;;;;;;;7.98;73.45;94052.84;2028508;70;20155;-72
2024/04/11 03:46:44;;;;;;;7.00;4.20;;;;;;;7.89;73.35;94042.19;2028680;70;20191;-71
2024/04/11 03:49:11;;;;;;;10.85;4.75;;;;;;;7.97;74.01;94059.78;2028658;70;20284;-72
2024/04/11 03:51:41;;;;;;;9.52;5.35;;;;;;;7.96;74.03;94052.66;2028603;70;20510;-71
2024/04/11 03:54:11;;;;;;;9.27;5.50;;;;;;;7.73;74.12;94047.03;2028416;70;20148;-71
2024/04/11 03:56:37;;;;;;;8.55;4.35;;;;;;;7.88;73.11;94060.34;2028280;70;20145;-73
2024/04/11 03:59:06;;;;;;;7.82;4.13;;;;;;;7.94;73.38;94057.34;2027717;70;20189;-71
2024/04/11 04:01:32;;;;;;;7.85;4.68;;;;;;;7.97;73.96;94054.16;2028404;70;20148;-71
2024/04/11 04:04:03;;;;;;;9.38;4.97;;;;;;;8.00;73.68;94061.44;2027807;70;20160;-71
2024/04/11 04:06:30;;;;;;;7.75;4.80;;;;;;;7.99;73.62;94057.16;2028440;70;20189;-72
2024/04/11 04:08:56;;;;;;;9.30;5.82;;;;;;;7.98;74.14;94061.25;2028380;70;20606;-72
2024/04/11 04:11:22;;;;;;;8.77;5.57;;;;;;;7.96;74.26;94061.06;2028410;70;20291;-73
2024/04/11 04:13:47;;;;;;;8.93;5.50;;;;;;;7.96;74.22;94077.16;2028354;70;20299;-72
2024/04/11 04:16:16;;;;;;;8.43;5.10;;;;;;;7.99;74.05;94071.16;2028163;70;20155;-72
2024/04/11 04:18:47;;;;;;;10.75;5.78;;;;;;;8.02;74.00;94069.31;2028114;70;20141;-73
2024/04/11 04:21:13;;;;;;;8.40;5.32;;;;;;;8.06;73.08;94078.06;2028468;70;20637;-72
2024/04/11 04:23:42;;;;;;;9.32;4.57;;;;;;;7.69;74.89;94073.94;2028565;70;20552;-71
2024/04/11 04:26:09;;;;;;;8.77;4.85;;;;;;;7.88;73.81;94069.50;2028412;70;20614;-72
2024/04/11 04:28:38;;;;;;;6.43;4.38;;;;;;;8.01;73.57;94070.59;2028244;70;20579;-73
2024/04/11 04:31:30;;;;;;;7.97;4.68;;;;;;;8.06;72.12;94075.25;2028334;70;20152;-72
2024/04/11 04:34:03;;;;;;;6.05;4.55;;;;;;;8.04;72.90;94081.44;2028261;70;20251;-72
2024/04/11 04:36:39;;;;;;;8.10;4.53;;;;;;;8.02;73.34;94077.72;2028354;70;20157;-73
2024/04/11 04:39:06;;;;;;;8.80;5.05;;;;;;;7.93;74.08;94076.22;2028354;70;20253;-72
2024/04/11 04:41:31;;;;;;;10.45;4.95;;;;;;;8.01;73.35;94081.81;2028344;70;20145;-72
2024/04/11 04:44:00;;;;;;;6.95;4.38;;;;;;;8.03;74.01;94082.75;2028124;70;20164;-72
2024/04/11 04:46:32;;;;;;;9.88;4.82;;;;;;;8.07;73.12;94079.59;2028407;70;20153;-72
2024/04/11 04:49:00;;;;;;;8.70;4.63;;;;;;;8.05;73.71;94077.31;2028858;70;20149;-72
2024/04/11 04:51:31;;;;;;;6.93;4.13;;;;;;;8.08;73.53;94076.22;2028322;70;20177;-71
2024/04/11 04:53:59;;;;;;;6.80;4.10;;;;;;;8.15;71.79;94071.91;2028459;70;20152;-72
2024/04/11 04:56:28;;;;;;;9.77;5.95;;;;;;;8.03;71.97;94068.00;2028639;70;20157;-71
2024/04/11 04:58:53;;;;;;;10.02;4.60;;;;;;;8.10;71.96;94082.00;2028536;70;20732;-70
2024/04/11 05:01:26;;;;;;;9.55;4.97;;;;;;;8.07;72.76;94088.00;2029029;70;20149;-72
2024/04/11 05:03:52;;;;;;;15.60;5.40;;;;;;;8.10;72.20;94079.19;2028709;70;20156;-72
2024/04/11 05:06:18;;;;;;;10.38;5.75;;;;;;;7.86;73.31;94077.69;2028212;70;20323;-71
2024/04/11 05:08:46;;;;;;;10.27;5.97;;;;;;;7.39;76.64;94083.81;2028480;70;20264;-71
2024/04/11 05:11:21;;;;;;;8.48;4.72;;;;;;;7.67;74.19;94093.41;2028586;70;20164;-70
2024/04/11 05:13:52;;;;;;;9.50;4.60;;;;;;;7.57;75.12;94085.53;2028492;70;20140;-71
2024/04/11 05:16:19;;;;;;;12.23;5.10;;;;;;;7.84;74.24;94085.19;2028436;70;20149;-71
2024/04/11 05:18:46;;;;;;;9.23;4.50;;;;;;;8.04;73.76;94103.13;2028535;70;20233;-72
2024/04/11 05:21:23;;;;;;;6.25;3.80;;;;;;;8.17;72.66;94099.41;2025008;70;20145;-72
2024/04/11 05:23:49;;;;;;;8.85;4.72;;;;;;;7.93;73.98;94100.72;2028302;70;20233;-73
2024/04/11 05:26:14;;;;;;;7.68;4.35;;;;;;;7.42;76.89;94101.56;2028390;70;20239;-72
2024/04/11 05:28:44;;;;;;;10.82;4.90;;;;;;;7.11;79.02;94101.47;2024517;70;20144;-71
2024/04/11 05:31:14;;;;;;;7.95;4.50;;;;;;;7.37;77.87;94106.78;2028366;70;20194;-72
2024/04/11 05:33:41;;;;;;;6.13;3.80;;;;;;;7.32;77.92;94104.16;2028183;70;20611;-73
2024/04/11 05:36:12;;;;;;;9.10;4.15;;;;;;;7.29;78.02;94108.81;2028302;70;20183;-74
2024/04/11 05:38:43;;;;;;;9.38;4.55;;;;;;;7.48;76.87;94102.91;2024736;70;20151;-71
2024/04/11 05:41:09;;;;;;;8.02;4.60;;;;;;;7.42;76.98;94107.16;2028262;70;20144;-74
2024/04/11 05:43:47;;;;;;;7.43;4.57;;;;;;;7.49;76.25;94098.03;2028142;70;20148;-75
2024/04/11 05:46:13;;;;;;;9.95;4.30;;;;;;;7.71;74.89;94119.75;2028327;70;20548;-71
2024/04/11 05:48:42;;;;;;;11.63;5.30;;;;;;;7.68;74.83;94112.44;2028448;70;20530;-72
2024/04/11 05:51:10;;;;;;;10.05;4.88;;;;;;;7.53;74.99;94115.22;2028247;70;20540;-74
2024/04/11 05:53:37;;;;;;;7.07;5.13;;;;;;;7.71;74.51;94114.16;2024978;70;20211;-72
2024/04/11 05:56:10;;;;;;;8.50;4.85;;;;;;;7.82;73.67;94121.44;2028354;70;20188;-71
2024/04/11 05:58:40;;;;;;;7.10;4.60;;;;;;;7.95;72.34;94121.28;2028278;70;20272;-72
2024/04/11 06:01:09;;;;;;;7.30;5.13;;;;;;;7.25;75.61;94118.91;2028307;70;20164;-72
2024/04/11 06:03:46;;;;;;;7.43;4.57;;;;;;;7.68;73.66;94114.50;2024787;70;20646;-71
2024/04/11 06:06:13;;;;;;;8.25;4.38;;;;;;;7.74;73.27;94113.00;2024887;70;20148;-73
2024/04/11 06:08:44;;;;;;;8.65;4.05;;;;;;;7.90;71.96;94113.78;2028287;70;20221;-73
2024/04/11 06:11:10;;;;;;;8.57;4.28;;;;;;;7.96;72.41;94122.75;2028450;70;20145;-72
2024/04/11 06:13:36;;;;;;;5.35;3.85;;;;;;;7.93;71.98;94135.13;2027896;70;20560;-69
2024/04/11 06:16:03;;;;;;;5.97;3.45;;;;;;;7.88;72.04;94134.00;2028412;70;20179;-71
2024/04/11 06:18:34;;;;;;;8.00;4.63;;;;;;;7.89;72.31;94124.25;2028314;70;20165;-71
2024/04/11 06:21:02;;;;;;;7.68;3.90;;;;;;;7.94;72.35;94133.06;2024929;70;20141;-71
2024/04/11 06:23:29;;;;;;;7.93;4.13;;;;;;;8.00;72.20;94136.41;2028361;70;20236;-72
2024/04/11 06:25:55;;;;;;;7.18;4.15;;;;;;;8.01;73.06;94130.25;2024830;70;20149;-72
2024/04/11 06:28:20;;;;;;;6.28;4.15;;;;;;;7.98;73.39;94137.00;2028257;70;20176;-71
2024/04/11 06:30:51;;;;;;;6.50;4.15;;;;;;;8.11;72.70;94142.41;2028550;70;20187;-71
2024/04/11 06:33:17;;;;;;;6.15;3.97;;;;;;;8.22;71.54;94138.50;2028402;70;20202;-71
2024/04/11 06:35:46;;;;;;;6.35;3.80;;;;;;;8.30;70.90;94139.25;2028675;70;20551;-71
2024/04/11 06:38:16;;;;;;;5.60;2.97;;;;;;;7.93;71.04;94135.13;2028638;70;20160;-71
2024/04/11 06:40:44;;;;;;;7.10;3.35;;;;;;;7.61;71.49;94132.81;2028664;70;20168;-72
2024/04/11 06:43:13;;;;;;;3.72;2.58;;;;;;;7.81;70.91;94126.31;2025239;70;20239;-73
2024/04/11 06:45:41;;;;;;;4.57;2.80;;;;;;;7.58;71.80;94120.66;2028641;70;20194;-72
2024/04/11 06:48:08;;;;;;;5.47;3.30;;;;;;;7.86;71.70;94138.66;2028625;70;20144;-72
2024/04/11 06:50:34;;;;;;;7.13;3.70;;;;;;;7.86;71.48;94130.22;2025061;70;20220;-70
2024/04/11 06:53:00;;;;;;;9.13;4.10;;;;;;;8.18;70.40;94134.56;2028075;70;20244;-72
2024/04/11 06:55:25;;;;;;;8.02;4.03;;;;;;;8.34;70.40;94138.88;2028509;70;20236;-75
2024/04/11 06:57:52;;;;;;;7.75;4.25;;;;;;;8.45;69.97;94132.88;2028463;70;20185;-72
2024/04/11 07:01:18;;;;;;;9.13;3.65;;;;;;;8.54;69.15;94140.72;2028393;70;20144;-70
2024/04/11 07:03:25;;;;;;;5.93;3.80;;;;;;;8.46;69.63;94131.56;2026533;70;20228;-71
2024/04/11 07:06:09;;;;;;;5.88;3.60;;;;;;;8.70;69.41;94121.06;2028360;70;20133;-71
2024/04/11 07:08:37;;;;;;;6.63;4.47;;;;;;;8.14;71.02;94126.50;2028123;70;20195;-71
2024/04/11 07:11:27;;;;;;;10.90;6.30;;;;;;;8.24;70.54;94129.50;2028104;70;20159;-70
2024/04/11 07:13:56;;;;;;;8.50;5.07;;;;;;;8.55;68.51;94127.44;2028177;70;20152;-70
2024/04/11 07:16:29;;;;;;;8.75;4.35;;;;;;;8.78;69.18;94116.16;2028666;70;20241;-70
2024/04/11 07:18:58;;;;;;;6.25;4.10;;;;;;;9.13;68.61;94117.94;2025321;70;20282;-70
2024/04/11 07:21:25;;;;;;;7.97;4.47;;;;;;;8.98;68.65;94125.66;2028605;70;20195;-70
2024/04/11 07:23:55;;;;;;;9.68;5.05;;;;;;;9.47;69.84;94115.91;2028506;70;20180;-71
2024/04/11 07:26:31;;;;;;;7.38;4.47;;;;;;;9.61;69.12;94123.50;2028603;70;20252;-71
2024/04/11 07:29:03;;;;;;;9.10;4.90;;;;;;;10.13;68.10;94115.31;2028397;70;20184;-71
2024/04/11 07:31:31;;;;;;;14.53;4.90;;;;;;;10.13;68.76;94104.06;2028279;70;20164;-72
2024/04/11 07:33:58;;;;;;;6.20;4.45;;;;;;;9.83;67.64;94109.88;2028093;70;20317;-71
2024/04/11 07:36:25;;;;;;;6.82;4.88;;;;;;;9.98;67.13;94111.84;2028410;70;20637;-75
2024/04/11 07:38:53;;;;;;;10.18;5.53;;;;;;;10.10;68.35;94110.06;2028485;70;20161;-75
2024/04/11 07:41:23;;;;;;;9.68;5.30;;;;;;;10.44;68.14;94106.63;2028380;70;20149;-70
2024/04/11 07:43:57;;;;;;;8.23;5.03;;;;;;;10.88;66.88;94100.38;2028238;70;20165;-74
2024/04/11 07:46:33;;;;;;;6.32;4.60;;;;;;;11.05;65.71;94110.91;2028552;70;20207;-72
2024/04/11 07:48:59;;;;;;;6.70;4.43;;;;;;;11.59;63.75;94111.00;2028492;70;20152;-72
2024/04/11 07:51:26;;;;;;;7.97;4.75;;;;;;;11.15;63.71;94101.19;2028319;70;20609;-72
2024/04/11 07:53:52;;;;;;;6.82;4.47;;;;;;;11.52;63.09;94109.03;2024743;70;20152;-71
2024/04/11 07:56:20;;;;;;;6.63;4.63;;;;;;;11.78;62.76;94116.03;2028250;70;20153;-71
2024/04/11 07:58:49;;;;;;;7.78;4.63;;;;;;;12.00;61.90;94112.13;2028232;70;20160;-71
2024/04/11 08:01:22;;;;;;;7.35;4.25;;;;;;;10.82;63.54;94102.72;2028313;70;20157;-71
2024/04/11 08:03:49;;;;;;;;;;;;;;;11.17;63.73;94114.69;2028560;70;20145;-71
2024/04/11 08:06:16;;;;;;;7.90;4.63;;;;;;;11.56;62.41;94101.63;2028517;70;20167;-72
2024/04/11 08:08:42;;;;;;;5.88;4.50;;;;;;;12.12;63.71;94109.53;2028393;70;20157;-72
2024/04/11 08:11:10;;;;;;;9.50;4.75;;;;;;;11.98;61.94;94106.34;2028451;70;20488;-75
2024/04/11 08:13:38;;;;;;;6.43;4.57;;;;;;;12.06;60.78;94100.59;2028074;70;20175;-71
2024/04/11 08:16:07;;;;;;;6.38;4.00;;;;;;;12.32;60.04;94102.59;2028416;70;20168;-71
2024/04/11 08:18:33;;;;;;;8.63;3.70;;;;;;;12.42;59.26;94102.66;2028346;70;20153;-72
2024/04/11 08:20:59;;;;;;;3.30;2.97;;;;;;;12.36;55.97;94091.63;2028537;70;20583;-72
2024/04/11 08:23:25;;;;;;;5.32;3.22;;;;;;;12.54;54.83;94102.81;2028360;70;20163;-72
2024/04/11 08:25:52;;;;;;;5.40;2.90;;;;;;;12.92;56.09;94105.72;2028406;70;20145;-73
2024/04/11 08:28:18;;;;;;;3.60;2.50;;;;;;;13.04;53.94;94108.69;2024491;70;20164;-71
2024/04/11 08:30:47;;;;;;;6.90;2.72;;;;;;;12.80;53.55;94104.81;2028388;70;20164;-72
2024/04/11 08:33:20;;;;;;;5.40;2.65;;;;;;;13.42;55.22;94095.91;2028354;70;20156;-73
2024/04/11 08:35:52;;;;;;;3.45;2.67;;;;;;;13.45;53.02;94098.31;2028429;70;20144;-71
2024/04/11 08:38:23;;;;;;;6.45;2.40;;;;;;;13.77;53.59;94101.97;2028307;70;20300;-73
2024/04/11 08:40:49;;;;;;;3.10;2.40;;;;;;;14.24;52.00;94100.34;2028547;70;20232;-72
2024/04/11 08:43:20;;;;;;;4.53;2.47;;;;;;;14.90;51.68;94105.56;2028552;70;20369;-74
2024/04/11 08:45:46;;;;;;;4.38;2.63;;;;;;;14.99;50.77;94098.34;2028456;70;20141;-75
2024/04/11 08:48:12;;;;;;;3.00;2.28;;;;;;;15.43;49.49;94111.84;2028310;70;20152;-72
2024/04/11 08:50:45;;;;;;;3.63;1.95;;;;;;;15.43;49.21;94100.50;2028445;70;20148;-73
2024/04/11 08:53:16;;;;;;;5.78;2.50;;;;;;;15.42;49.49;94101.88;2028035;70;20148;-72
2024/04/11 08:55:42;;;;;;;4.40;2.30;;;;;;;16.40;51.22;94101.63;2022029;70;20147;-72
2024/04/11 08:58:08;;;;;;;3.53;1.95;;;;;;;15.28;48.97;94105.88;2028385;70;20153;-72
2024/04/11 09:00:40;;;;;;;3.85;1.88;;;;;;;16.21;48.97;94094.81;2028047;70;20148;-71
2024/04/11 09:03:11;;;;;;;3.47;1.98;;;;;;;16.94;48.62;94104.22;2028410;70;20160;-73
2024/04/11 09:05:38;;;;;;;2.70;2.08;;;;;;;16.70;46.78;94102.75;2028386;70;20202;-73
2024/04/11 09:08:05;;;;;;;5.50;3.30;;;;;;;17.57;46.00;94092.19;2024702;70;20160;-78
2024/04/11 09:10:31;;;;;;;3.30;2.08;;;;;;;16.85;45.62;94095.84;2024634;70;20145;-73
2024/04/11 09:13:00;;;;;;;4.28;2.33;;;;;;;16.71;47.78;94096.44;2028178;70;20217;-73
2024/04/11 09:15:26;;;;;;;3.30;2.35;;;;;;;18.29;45.12;94103.38;2028091;70;20188;-72
2024/04/11 09:17:55;;;;;;;4.57;2.00;;;;;;;18.67;44.48;94113.25;2024553;70;20141;-73
2024/04/11 09:20:24;;;;;;;2.75;1.90;;;;;;;19.05;45.38;94102.38;2022014;70;20219;-73
2024/04/11 09:22:59;;;;;;;3.97;1.70;;;;;;;18.78;42.85;94092.47;2028263;70;20210;-74
2024/04/11 09:25:30;;;;;;;6.88;4.57;;;;;;;18.80;43.36;94114.66;2028404;70;20184;-74
2024/04/11 09:27:59;;;;;;;4.45;3.10;;;;;;;18.38;43.69;94093.88;2028345;70;20157;-73
2024/04/11 09:30:29;;;;;;;4.30;2.13;;;;;;;18.58;43.51;94085.66;2024680;70;20629;-74
2024/04/11 09:33:04;;;;;;;2.08;1.70;;;;;;;19.92;42.34;94099.59;2028333;70;20693;-73
2024/04/11 09:35:40;;;;;;;3.05;1.73;;;;;;;19.58;43.38;94101.47;2028317;70;20149;-73
2024/04/11 09:38:12;;;;;;;2.28;1.52;;;;;;;20.44;44.00;94094.91;2028395;70;20594;-74
2024/04/11 09:40:50;;;;;;;3.28;1.80;;;;;;;19.51;41.62;94095.44;2028202;70;20149;-74
2024/04/11 09:43:17;;;;;;;2.53;1.95;;;;;;;19.45;41.38;94092.28;2028034;70;20232;-75
2024/04/11 09:45:56;;;;;;;2.50;1.45;;;;;;;20.89;39.67;94094.06;2028420;70;20176;-74
2024/04/11 09:48:25;;;;;;;2.28;1.40;;;;;;;20.26;40.54;94075.50;2024785;70;20141;-73
2024/04/11 09:50:56;;;;;;;3.05;1.30;;;;;;;19.64;40.14;94085.38;2028577;70;20157;-73
2024/04/11 09:53:27;;;;;;;5.00;1.42;;;;;;;20.41;40.44;94082.59;2028542;70;20141;-74
2024/04/11 09:55:57;;;;;;;2.67;1.33;;;;;;;20.86;38.22;94081.06;2028295;70;20170;-74
2024/04/11 09:58:28;;;;;;;2.25;1.50;;;;;;;21.52;37.50;94080.38;2028329;70;20491;-74
2024/04/11 10:01:06;;;;;;;3.15;1.30;;;;;;;21.70;38.45;94082.53;2028525;70;20172;-76
2024/04/11 10:03:33;;;;;;;3.20;1.67;;;;;;;22.21;38.64;94081.72;2028500;70;20151;-75
2024/04/11 10:06:01;;;;;;;2.22;1.13;;;;;;;21.79;37.98;94090.06;2025151;70;20152;-74
2024/04/11 10:08:34;;;;;;;2.95;1.00;;;;;;;22.37;36.85;94084.50;2028342;70;20518;-76
2024/04/11 10:11:07;;;;;;;2.47;1.35;;;;;;;20.44;37.82;94084.19;2028113;70;20157;-76
2024/04/11 10:13:40;;;;;;;1.42;1.20;;;;;;;22.03;36.37;94079.56;2028042;70;20186;-74
2024/04/11 10:16:06;;;;;;;;;;;;;;;21.63;36.91;94075.81;2028359;70;20141;-75
2024/04/11 10:18:41;;;;;;;1.60;1.30;;;;;;;24.62;33.49;94078.63;2028373;70;20044;-73
2024/04/11 10:21:11;;;;;;;1.50;1.05;;;;;;;24.87;33.44;94085.81;2028465;70;20214;-74
2024/04/11 10:23:38;;;;;;;2.05;1.80;;;;;;;24.07;33.63;94066.13;2028494;70;20249;-74
2024/04/11 10:26:06;;;;;;;2.25;1.88;;;;;;;24.67;34.00;94080.94;2028375;70;20225;-75
2024/04/11 10:28:41;;;;;;;3.20;1.20;;;;;;;25.32;32.71;94082.81;2028244;70;20133;-75
2024/04/11 10:31:18;;;;;;;5.38;1.10;;;;;;;25.55;30.66;94089.19;2024834;70;20193;-73
2024/04/11 10:33:53;;;;;;;1.85;1.10;;;;;;;25.69;31.78;94086.69;2028375;70;20171;-72
2024/04/11 10:36:21;;;;;;;3.03;1.10;;;;;;;25.90;30.94;94084.38;2028400;70;20184;-73
2024/04/11 10:38:57;;;;;;;5.88;1.05;;;;;;;26.59;31.40;94081.00;2028271;70;20205;-73
2024/04/11 10:41:23;;;;;;;1.88;1.25;;;;;;;22.91;33.83;94071.50;2028278;70;20145;-73
2024/04/11 10:43:53;;;;;;;1.58;1.10;;;;;;;25.54;32.52;94079.81;2027841;70;20183;-73
2024/04/11 10:46:23;;;;;;;1.08;0.98;;;;;;;27.83;32.34;94074.13;2028332;70;20541;-74
2024/04/11 10:48:52;;;;;;;2.30;1.17;;;;;;;28.33;29.68;94082.19;2028209;70;20153;-73
2024/04/11 10:51:22;;;;;;;1.10;1.00;;;;;;;29.18;31.22;94084.88;2028390;70;20236;-73
2024/04/11 10:54:10;;;;;;;1.95;1.20;;;;;;;30.75;28.68;94074.13;2028549;70;20598;-76
2024/04/11 10:56:39;;;;;;;2.55;1.17;;;;;;;30.71;28.93;94076.97;2028942;70;20241;-71
2024/04/11 10:59:06;;;;;;;2.97;1.08;;;;;;;31.73;27.71;94075.28;2028650;70;20267;-72
2024/04/11 11:01:34;;;;;;;2.30;1.10;;;;;;;33.29;26.35;94073.09;2028785;70;20212;-74
2024/04/11 11:04:06;;;;;;;1.42;0.93;;;;;;;31.38;27.52;94080.25;2028857;70;20148;-72
2024/04/11 11:06:39;;;;;;;2.05;0.98;;;;;;;33.29;25.46;94070.91;2025286;70;20184;-73
2024/04/11 11:09:13;;;;;;;1.70;0.90;;;;;;;33.72;24.73;94079.50;2028774;70;20176;-73
2024/04/11 11:11:43;;;;;;;2.75;1.10;;;;;;;35.51;23.99;94083.19;2028696;70;20152;-72
2024/04/11 11:14:10;;;;;;;1.73;1.02;;;;;;;34.24;24.75;94077.75;2028238;70;20167;-73
2024/04/11 11:16:38;;;;;;;1.80;0.82;;;;;;;34.79;25.07;94076.59;2028789;70;20625;-74
2024/04/11 11:19:11;;;;;;;1.85;1.00;;;;;;;34.73;23.59;94074.47;2028672;70;20284;-74
2024/04/11 11:21:40;;;;;;;3.60;1.10;;;;;;;34.43;22.89;94078.31;2028661;70;20153;-75
2024/04/11 11:24:13;;;;;;;4.40;0.90;;;;;;;34.99;24.31;94072.75;2028652;70;20598;-74
2024/04/11 11:26:46;;;;;;;2.92;0.93;;;;;;;35.91;23.50;94072.38;2025256;70;20144;-75
2024/04/11 11:29:20;;;;;;;2.58;0.90;;;;;;;37.12;21.96;94069.03;2028686;70;20536;-75
2024/04/11 11:31:50;;;;;;;3.53;0.90;;;;;;;37.76;22.10;94067.78;2028721;70;20157;-74
2024/04/11 11:34:16;;;;;;;4.05;0.98;;;;;;;34.82;22.53;94063.38;2028692;70;20149;-75
2024/04/11 11:36:47;;;;;;;2.70;0.80;;;;;;;36.63;21.88;94057.41;2028563;70;20145;-74
2024/04/11 11:39:18;;;;;;;1.67;0.93;;;;;;;38.87;21.65;94060.84;2028556;70;20141;-78
2024/04/11 11:41:48;;;;;;;3.08;1.10;;;;;;;37.63;20.97;94056.28;2028892;70;20157;-74
2024/04/11 11:44:18;;;;;;;5.47;1.00;;;;;;;37.96;20.63;94061.50;2028508;70;20240;-72
2024/04/11 11:47:05;;;;;;;4.82;1.13;;;;;;;35.81;21.59;94054.97;2028665;70;20156;-72
2024/04/11 11:49:40;;;;;;;2.53;1.17;;;;;;;36.99;20.86;94053.13;2028632;70;20151;-75